createdAt,value
2018-06-27T00:02:05.949Z,14.53
2018-06-27T00:04:37.744Z,14.48
2018-06-27T00:07:12.550Z,14.43
2018-06-27T00:09:43.493Z,14.43
2018-06-27T00:12:16.463Z,14.36
2018-06-27T00:14:46.951Z,14.34
2018-06-27T00:17:16.964Z,14.27
2018-06-27T00:19:50.140Z,14.20
2018-06-27T00:22:22.965Z,14.20
2018-06-27T00:24:52.972Z,14.16
2018-06-27T00:27:27.735Z,14.12
2018-06-27T00:29:59.446Z,14.09
2018-06-27T00:32:32.947Z,14.10
2018-06-27T00:35:04.499Z,14.04
2018-06-27T00:37:36.537Z,13.99
2018-06-27T00:40:09.560Z,13.99
2018-06-27T00:42:43.402Z,13.95
2018-06-27T00:45:16.638Z,13.84
2018-06-27T00:47:48.716Z,13.87
2018-06-27T00:50:20.143Z,13.88
2018-06-27T00:52:51.699Z,13.81
2018-06-27T00:55:23.668Z,13.76
2018-06-27T00:57:58.456Z,13.91
2018-06-27T01:00:30.795Z,13.95
2018-06-27T01:03:02.544Z,13.88
2018-06-27T01:05:35.328Z,13.78
2018-06-27T01:08:07.146Z,13.70
2018-06-27T01:10:37.151Z,13.65
2018-06-27T01:13:11.705Z,13.64
2018-06-27T01:15:46.803Z,13.58
2018-06-27T01:18:16.822Z,13.58
2018-06-27T01:20:48.838Z,13.60
2018-06-27T01:23:23.356Z,13.57
2018-06-27T01:25:55.171Z,13.68
2018-06-27T01:28:29.840Z,13.69
2018-06-27T01:31:04.224Z,13.74
2018-06-27T01:33:36.572Z,13.66
2018-06-27T01:36:09.920Z,13.62
2018-06-27T01:38:44.570Z,13.67
2018-06-27T01:41:16.294Z,13.58
2018-06-27T01:43:51.078Z,13.56
2018-06-27T01:46:22.296Z,13.47
2018-06-27T01:48:56.175Z,13.41
2018-06-27T01:51:29.636Z,13.39
2018-06-27T01:54:02.672Z,13.36
2018-06-27T01:56:32.593Z,13.25
2018-06-27T01:59:07.181Z,13.30
2018-06-27T02:01:38.710Z,13.18
2018-06-27T02:04:14.693Z,13.12
2018-06-27T02:06:49.734Z,13.10
2018-06-27T02:09:22.882Z,13.05
2018-06-27T02:11:57.394Z,13.11
2018-06-27T02:14:32.090Z,13.03
2018-06-27T02:17:02.130Z,12.90
2018-06-27T02:19:35.072Z,12.86
2018-06-27T02:22:05.322Z,12.80
2018-06-27T02:24:38.302Z,12.83
2018-06-27T02:27:09.954Z,12.88
2018-06-27T02:29:43.211Z,12.87
2018-06-27T02:32:15.929Z,12.79
2018-06-27T02:34:49.178Z,12.80
2018-06-27T02:37:20.640Z,12.74
2018-06-27T02:39:54.517Z,12.75
2018-06-27T02:42:26.049Z,12.72
2018-06-27T02:44:58.958Z,12.67
2018-06-27T02:47:32.132Z,12.69
2018-06-27T02:50:05.036Z,12.67
2018-06-27T02:52:36.627Z,12.70
2018-06-27T02:55:09.965Z,12.68
2018-06-27T02:57:40.817Z,12.69
2018-06-27T03:00:15.642Z,12.66
2018-06-27T03:02:46.581Z,12.63
2018-06-27T03:05:19.057Z,12.55
2018-06-27T03:07:51.749Z,12.45
2018-06-27T03:10:21.813Z,12.56
2018-06-27T03:12:54.829Z,12.44
2018-06-27T03:15:26.473Z,12.39
2018-06-27T03:17:59.616Z,12.45
2018-06-27T03:20:31.634Z,12.45
2018-06-27T03:23:03.214Z,12.44
2018-06-27T03:25:36.374Z,12.37
2018-06-27T03:28:08.610Z,12.25
2018-06-27T03:30:43.456Z,12.24
2018-06-27T03:33:16.561Z,12.18
2018-06-27T03:35:49.526Z,12.30
2018-06-27T03:38:22.700Z,12.23
2018-06-27T03:40:54.561Z,12.21
2018-06-27T03:43:26.728Z,12.30
2018-06-27T03:45:59.740Z,12.46
2018-06-27T03:48:29.798Z,12.65
2018-06-27T03:51:01.258Z,12.85
2018-06-27T03:53:43.986Z,12.98
2018-06-27T03:56:15.414Z,13.17
2018-06-27T03:58:48.553Z,13.41
2018-06-27T04:01:20.087Z,13.44
2018-06-27T04:03:53.700Z,13.80
2018-06-27T04:06:24.093Z,14.18
2018-06-27T04:08:55.635Z,14.33
2018-06-27T04:11:28.831Z,14.63
2018-06-27T04:14:01.861Z,14.82
2018-06-27T04:16:33.455Z,15.01
2018-06-27T04:19:06.440Z,15.28
2018-06-27T04:21:40.845Z,15.72
2018-06-27T04:24:12.517Z,15.52
2018-06-27T04:26:45.464Z,15.91
2018-06-27T04:29:18.507Z,15.94
2018-06-27T04:31:50.096Z,16.12
2018-06-27T04:34:24.930Z,16.33
2018-06-27T04:36:59.787Z,16.49
2018-06-27T04:39:34.856Z,16.57
2018-06-27T04:42:06.567Z,16.65
2018-06-27T04:44:38.004Z,17.13
2018-06-27T04:47:10.905Z,17.13
2018-06-27T04:49:43.827Z,16.75
2018-06-27T04:52:16.353Z,17.31
2018-06-27T04:54:46.495Z,17.09
2018-06-27T04:57:17.932Z,17.66
2018-06-27T04:59:51.050Z,17.47
2018-06-27T05:02:25.052Z,17.55
2018-06-27T05:04:56.474Z,17.52
2018-06-27T05:07:29.467Z,17.75
2018-06-27T05:10:04.073Z,17.46
2018-06-27T05:12:37.470Z,17.41
2018-06-27T05:15:09.179Z,17.63
2018-06-27T05:17:42.528Z,17.60
2018-06-27T05:20:15.391Z,18.02
2018-06-27T05:22:46.976Z,18.15
2018-06-27T05:25:19.961Z,18.26
2018-06-27T05:27:53.253Z,18.20
2018-06-27T05:30:26.219Z,18.00
2018-06-27T05:33:00.654Z,18.07
2018-06-27T05:35:32.011Z,18.39
2018-06-27T05:38:04.997Z,18.61
2018-06-27T05:40:37.876Z,18.77
2018-06-27T05:43:10.837Z,18.90
2018-06-27T05:45:43.944Z,19.17
2018-06-27T05:48:17.138Z,19.47
2018-06-27T05:50:50.092Z,19.51
2018-06-27T05:53:24.952Z,19.42
2018-06-27T05:55:54.897Z,19.83
2018-06-27T05:58:24.596Z,19.75
2018-06-27T06:00:57.553Z,20.31
2018-06-27T06:03:28.913Z,19.70
2018-06-27T06:06:00.470Z,20.81
2018-06-27T06:08:30.729Z,20.51
2018-06-27T06:11:03.990Z,20.90
2018-06-27T06:13:38.042Z,20.58
2018-06-27T06:16:08.523Z,20.74
2018-06-27T06:18:40.086Z,20.83
2018-06-27T06:21:11.948Z,21.19
2018-06-27T06:23:46.461Z,21.14
2018-06-27T06:26:18.430Z,21.28
2018-06-27T06:28:52.781Z,21.74
2018-06-27T06:31:26.882Z,21.46
2018-06-27T06:34:01.072Z,21.35
2018-06-27T06:36:32.486Z,21.50
2018-06-27T06:39:07.082Z,21.26
2018-06-27T06:41:38.225Z,21.68
2018-06-27T06:44:10.170Z,21.87
2018-06-27T06:46:40.077Z,22.35
2018-06-27T06:49:11.827Z,22.28
2018-06-27T06:51:44.852Z,21.56
2018-06-27T06:54:18.038Z,22.69
2018-06-27T06:56:52.491Z,23.65
2018-06-27T06:59:24.485Z,22.53
2018-06-27T07:01:57.445Z,22.35
2018-06-27T07:04:29.017Z,22.46
2018-06-27T07:07:00.512Z,21.57
2018-06-27T07:09:32.045Z,22.19
2018-06-27T07:12:02.549Z,22.68
2018-06-27T07:14:34.638Z,22.66
2018-06-27T07:17:05.059Z,22.69
2018-06-27T07:19:36.536Z,23.65
2018-06-27T07:22:09.140Z,23.19
2018-06-27T07:24:40.640Z,22.86
2018-06-27T07:27:10.653Z,24.04
2018-06-27T07:29:43.650Z,24.16
2018-06-27T07:32:16.512Z,24.66
2018-06-27T07:34:49.539Z,24.43
2018-06-27T07:37:23.237Z,25.17
2018-06-27T07:39:54.970Z,25.10
2018-06-27T07:42:26.016Z,24.77
2018-06-27T07:44:57.448Z,25.06
2018-06-27T07:47:31.927Z,25.55
2018-06-27T07:50:03.570Z,25.66
2018-06-27T07:52:36.407Z,25.38
2018-06-27T07:55:10.023Z,25.65
2018-06-27T07:57:41.818Z,26.47
2018-06-27T08:00:13.650Z,25.47
2018-06-27T08:02:46.994Z,24.52
2018-06-27T08:05:20.022Z,25.18
2018-06-27T08:07:53.042Z,24.65
2018-06-27T08:10:27.539Z,25.47
2018-06-27T08:13:00.553Z,25.82
2018-06-27T08:15:34.933Z,24.23
2018-06-27T08:18:08.799Z,24.83
2018-06-27T08:20:42.321Z,25.75
2018-06-27T08:23:17.190Z,26.12
2018-06-27T08:25:55.531Z,25.48
2018-06-27T08:28:30.043Z,24.71
2018-06-27T08:31:03.178Z,25.44
2018-06-27T08:33:37.141Z,25.22
2018-06-27T08:36:09.482Z,25.37
2018-06-27T08:38:41.068Z,24.96
2018-06-27T08:41:12.693Z,25.10
2018-06-27T08:43:45.756Z,25.35
2018-06-27T08:46:17.101Z,24.65
2018-06-27T08:48:48.122Z,25.15
2018-06-27T08:51:19.628Z,25.70
2018-06-27T08:53:52.899Z,25.70
2018-06-27T08:56:25.960Z,26.11
2018-06-27T08:58:58.942Z,26.16
2018-06-27T09:01:31.082Z,26.55
2018-06-27T09:04:02.532Z,26.55
2018-06-27T09:06:34.681Z,26.16
2018-06-27T09:09:05.630Z,26.00
2018-06-27T09:11:37.142Z,26.49
2018-06-27T09:14:11.522Z,26.75
2018-06-27T09:16:42.014Z,26.78
2018-06-27T09:19:14.938Z,26.66
2018-06-27T09:21:46.772Z,26.37
2018-06-27T09:24:18.266Z,25.80
2018-06-27T09:26:48.847Z,27.00
2018-06-27T09:29:20.704Z,26.99
2018-06-27T09:31:52.066Z,26.51
2018-06-27T09:34:22.049Z,26.56
2018-06-27T09:36:52.485Z,26.38
2018-06-27T09:39:25.387Z,26.82
2018-06-27T09:41:55.615Z,27.10
2018-06-27T09:44:28.565Z,28.10
2018-06-27T09:47:01.468Z,27.65
2018-06-27T09:49:33.224Z,27.53
2018-06-27T09:52:04.791Z,27.97
2018-06-27T09:54:42.653Z,27.87
2018-06-27T09:57:16.609Z,27.71
2018-06-27T09:59:49.487Z,28.17
2018-06-27T10:02:21.635Z,27.44
2018-06-27T10:04:54.535Z,27.48
2018-06-27T10:07:25.598Z,27.85
2018-06-27T10:09:55.938Z,28.79
2018-06-27T10:12:25.907Z,28.05
2018-06-27T10:14:57.479Z,27.94
2018-06-27T10:17:29.039Z,28.46
2018-06-27T10:20:01.976Z,28.50
2018-06-27T10:22:31.892Z,27.96
2018-06-27T10:25:01.829Z,27.12
2018-06-27T10:27:33.381Z,27.19
2018-06-27T10:30:04.773Z,27.55
2018-06-27T10:32:36.283Z,28.15
2018-06-27T10:35:06.213Z,28.06
2018-06-27T10:37:36.208Z,28.75
2018-06-27T10:40:09.250Z,28.43
2018-06-27T10:42:40.659Z,28.35
2018-06-27T10:45:12.211Z,27.97
2018-06-27T10:47:42.220Z,27.87
2018-06-27T10:50:12.167Z,27.71
2018-06-27T10:52:43.058Z,27.87
2018-06-27T10:55:21.159Z,28.18
2018-06-27T10:57:52.578Z,28.27
2018-06-27T11:00:23.983Z,28.44
2018-06-27T11:02:57.009Z,28.26
2018-06-27T11:05:28.375Z,28.10
2018-06-27T11:08:01.325Z,27.54
2018-06-27T11:10:32.855Z,27.93
2018-06-27T11:13:07.399Z,28.06
2018-06-27T11:15:40.219Z,28.65
2018-06-27T11:18:11.693Z,27.99
2018-06-27T11:20:43.126Z,28.36
2018-06-27T11:23:16.123Z,27.73
2018-06-27T11:25:46.848Z,28.52
2018-06-27T11:28:18.406Z,28.29
2018-06-27T11:30:51.280Z,27.36
2018-06-27T11:33:21.928Z,27.07
2018-06-27T11:35:54.838Z,27.33
2018-06-27T11:38:26.217Z,28.24
2018-06-27T11:40:56.886Z,28.54
2018-06-27T11:43:31.232Z,28.40
2018-06-27T11:46:05.556Z,28.04
2018-06-27T11:48:39.846Z,28.68
2018-06-27T11:51:11.731Z,28.30
2018-06-27T11:53:41.627Z,27.79
2018-06-27T11:56:13.729Z,27.81
2018-06-27T11:58:43.618Z,27.64
2018-06-27T12:01:18.036Z,27.71
2018-06-27T12:03:49.590Z,27.94
2018-06-27T12:06:23.991Z,27.76
2018-06-27T12:08:57.151Z,27.75
2018-06-27T12:11:27.050Z,27.48
2018-06-27T12:13:59.922Z,27.71
2018-06-27T12:16:29.926Z,27.74
2018-06-27T12:19:01.400Z,27.30
2018-06-27T12:21:34.181Z,27.24
2018-06-27T12:24:06.109Z,27.74
2018-06-27T12:26:39.760Z,27.01
2018-06-27T12:29:11.404Z,27.53
2018-06-27T12:31:42.931Z,27.86
2018-06-27T12:34:15.866Z,27.82
2018-06-27T12:36:47.673Z,27.37
2018-06-27T12:39:19.021Z,27.34
2018-06-27T12:41:51.951Z,27.40
2018-06-27T12:44:24.101Z,27.65
2018-06-27T12:46:58.456Z,27.47
2018-06-27T12:49:29.954Z,27.27
2018-06-27T12:52:03.176Z,27.59
2018-06-27T12:54:34.690Z,27.33
2018-06-27T12:57:06.001Z,27.49
2018-06-27T12:59:36.138Z,27.85
2018-06-27T13:02:08.123Z,27.24
2018-06-27T13:04:40.059Z,27.80
2018-06-27T13:07:14.662Z,27.58
2018-06-27T13:09:47.444Z,27.99
2018-06-27T13:12:17.322Z,27.86
2018-06-27T13:14:51.857Z,27.75
2018-06-27T13:17:23.331Z,27.44
2018-06-27T13:19:56.300Z,26.90
2018-06-27T13:22:27.814Z,27.85
2018-06-27T13:25:00.219Z,27.82
2018-06-27T13:27:31.654Z,27.75
2018-06-27T13:30:03.103Z,27.96
2018-06-27T13:32:34.499Z,28.29
2018-06-27T13:35:07.684Z,28.12
2018-06-27T13:37:40.773Z,28.22
2018-06-27T13:40:14.132Z,27.67
2018-06-27T13:42:44.021Z,27.78
2018-06-27T13:45:15.487Z,27.65
2018-06-27T13:47:48.308Z,27.70
2018-06-27T13:50:21.102Z,27.63
2018-06-27T13:52:52.480Z,27.51
2018-06-27T13:55:23.353Z,27.88
2018-06-27T13:57:53.257Z,27.87
2018-06-27T14:00:24.648Z,27.94
2018-06-27T14:02:54.625Z,27.66
2018-06-27T14:05:24.432Z,27.82
2018-06-27T14:07:56.309Z,28.21
2018-06-27T14:10:28.541Z,28.19
2018-06-27T14:12:58.484Z,28.37
2018-06-27T14:15:28.455Z,28.43
2018-06-27T14:18:00.712Z,28.26
2018-06-27T14:20:32.287Z,28.27
2018-06-27T14:23:04.247Z,27.80
2018-06-27T14:25:36.462Z,27.87
2018-06-27T14:28:07.773Z,28.32
2018-06-27T14:30:40.672Z,27.64
2018-06-27T14:33:12.126Z,28.29
2018-06-27T14:35:44.978Z,28.17
2018-06-27T14:38:16.793Z,28.13
2018-06-27T14:40:49.590Z,28.37
2018-06-27T14:43:21.024Z,28.01
2018-06-27T14:45:52.384Z,27.89
2018-06-27T14:48:23.881Z,27.99
2018-06-27T14:50:53.716Z,28.05
2018-06-27T14:53:25.338Z,28.28
2018-06-27T14:55:58.181Z,28.50
2018-06-27T14:58:31.523Z,28.16
2018-06-27T15:01:02.351Z,28.44
2018-06-27T15:03:33.691Z,27.93
2018-06-27T15:06:05.479Z,27.46
2018-06-27T15:08:36.830Z,27.20
2018-06-27T15:11:08.186Z,27.64
2018-06-27T15:13:38.976Z,27.64
2018-06-27T15:16:10.473Z,27.95
2018-06-27T15:18:43.248Z,27.74
2018-06-27T15:21:16.728Z,27.19
2018-06-27T15:23:49.598Z,26.88
2018-06-27T15:26:22.444Z,27.02
2018-06-27T15:28:54.516Z,27.33
2018-06-27T15:31:25.787Z,27.44
2018-06-27T15:33:54.856Z,27.53
2018-06-27T15:36:26.167Z,27.32
2018-06-27T15:38:59.014Z,27.51
2018-06-27T15:41:28.983Z,27.42
2018-06-27T15:44:00.128Z,27.31
2018-06-27T15:46:30.057Z,27.23
2018-06-27T15:49:03.640Z,27.46
2018-06-27T15:51:36.855Z,27.44
2018-06-27T15:54:08.311Z,27.15
2018-06-27T15:56:42.639Z,27.05
2018-06-27T15:59:15.734Z,27.22
2018-06-27T16:01:47.840Z,27.26
2018-06-27T16:04:18.186Z,27.32
2018-06-27T16:06:48.144Z,27.30
2018-06-27T16:09:19.826Z,27.18
2018-06-27T16:11:51.480Z,27.33
2018-06-27T16:14:22.813Z,27.51
2018-06-27T16:16:54.892Z,27.08
2018-06-27T16:19:24.726Z,27.06
2018-06-27T16:21:56.177Z,26.76
2018-06-27T16:24:27.786Z,26.55
2018-06-27T16:26:57.773Z,26.72
2018-06-27T16:29:30.735Z,26.79
2018-06-27T16:32:03.863Z,26.86
2018-06-27T16:34:35.368Z,26.83
2018-06-27T16:37:05.375Z,26.94
2018-06-27T16:39:38.256Z,27.05
2018-06-27T16:42:11.068Z,26.95
2018-06-27T16:44:44.497Z,27.17
2018-06-27T16:47:16.689Z,26.74
2018-06-27T16:49:48.049Z,26.47
2018-06-27T16:52:21.025Z,26.35
2018-06-27T16:54:55.318Z,26.13
2018-06-27T16:57:25.892Z,26.25
2018-06-27T16:59:57.420Z,26.40
2018-06-27T17:02:28.798Z,26.39
2018-06-27T17:05:00.850Z,26.37
2018-06-27T17:07:35.288Z,26.29
2018-06-27T17:10:09.864Z,26.32
2018-06-27T17:12:39.854Z,26.31
2018-06-27T17:15:12.805Z,26.32
2018-06-27T17:17:45.733Z,26.27
2018-06-27T17:20:15.586Z,26.14
2018-06-27T17:22:48.522Z,26.22
2018-06-27T17:25:21.402Z,26.00
2018-06-27T17:27:54.688Z,25.99
2018-06-27T17:30:27.533Z,26.13
2018-06-27T17:32:57.526Z,26.07
2018-06-27T17:35:29.237Z,26.18
2018-06-27T17:38:00.600Z,26.26
2018-06-27T17:40:35.710Z,26.31
2018-06-27T17:43:07.644Z,26.17
2018-06-27T17:45:39.060Z,26.16
2018-06-27T17:48:09.103Z,26.08
2018-06-27T17:50:40.488Z,25.89
2018-06-27T17:53:11.908Z,25.74
2018-06-27T17:55:43.483Z,25.64
2018-06-27T17:58:17.016Z,25.53
2018-06-27T18:00:47.148Z,25.54
2018-06-27T18:03:17.525Z,25.56
2018-06-27T18:05:51.823Z,25.35
2018-06-27T18:08:24.984Z,25.22
2018-06-27T18:10:57.919Z,25.13
2018-06-27T18:13:29.573Z,25.05
2018-06-27T18:16:00.241Z,25.02
2018-06-27T18:18:33.456Z,25.00
2018-06-27T18:21:04.006Z,24.93
2018-06-27T18:23:37.199Z,24.90
2018-06-27T18:26:09.491Z,24.94
2018-06-27T18:28:41.668Z,24.91
2018-06-27T18:31:14.723Z,24.81
2018-06-27T18:33:46.355Z,24.78
2018-06-27T18:36:16.425Z,24.68
2018-06-27T18:38:46.677Z,24.60
2018-06-27T18:41:18.185Z,24.49
2018-06-27T18:43:49.820Z,24.45
2018-06-27T18:46:23.038Z,24.48
2018-06-27T18:48:54.421Z,24.37
2018-06-27T18:51:24.283Z,24.27
2018-06-27T18:53:57.192Z,24.30
2018-06-27T18:56:28.593Z,24.15
2018-06-27T18:59:01.696Z,24.04
2018-06-27T19:01:30.920Z,24.08
2018-06-27T19:04:02.296Z,24.06
2018-06-27T19:06:31.895Z,23.88
2018-06-27T19:09:01.807Z,23.69
2018-06-27T19:11:33.272Z,23.76
2018-06-27T19:14:04.850Z,23.65
2018-06-27T19:16:35.075Z,23.66
2018-06-27T19:19:07.313Z,23.52
2018-06-27T19:21:37.340Z,23.37
2018-06-27T19:24:08.936Z,23.25
2018-06-27T19:26:38.960Z,23.31
2018-06-27T19:29:13.390Z,23.22
2018-06-27T19:31:46.221Z,23.04
2018-06-27T19:34:17.609Z,22.93
2018-06-27T19:36:50.508Z,22.88
2018-06-27T19:39:37.457Z,22.84
2018-06-27T19:41:57.730Z,22.77
2018-06-27T19:44:30.921Z,22.58
2018-06-27T19:47:03.353Z,22.53
2018-06-27T19:49:34.730Z,22.46
2018-06-27T19:52:06.134Z,22.37
2018-06-27T19:54:37.661Z,22.36
2018-06-27T19:57:09.107Z,22.25
2018-06-27T19:59:41.990Z,22.10
2018-06-27T20:02:13.809Z,22.01
2018-06-27T20:04:43.782Z,21.94
2018-06-27T20:07:16.815Z,21.88
2018-06-27T20:09:48.256Z,21.84
2018-06-27T20:12:21.485Z,21.82
2018-06-27T20:14:51.350Z,21.71
2018-06-27T20:17:21.322Z,21.65
2018-06-27T20:19:54.194Z,21.59
2018-06-27T20:22:24.421Z,21.48
2018-06-27T20:24:55.134Z,21.52
2018-06-27T20:27:28.070Z,21.56
2018-06-27T20:29:58.522Z,21.50
2018-06-27T20:32:30.135Z,21.35
2018-06-27T20:35:03.141Z,21.36
2018-06-27T20:37:34.661Z,21.30
2018-06-27T20:40:04.682Z,21.35
2018-06-27T20:42:36.167Z,21.47
2018-06-27T20:45:06.932Z,21.47
2018-06-27T20:47:38.444Z,21.47
2018-06-27T20:50:09.935Z,21.47
2018-06-27T20:52:43.312Z,21.46
2018-06-27T20:55:13.281Z,21.52
2018-06-27T20:57:44.769Z,21.53
2018-06-27T21:00:16.240Z,21.54
2018-06-27T21:02:47.717Z,21.54
2018-06-27T21:05:20.852Z,21.41
2018-06-27T21:07:54.366Z,21.36
2018-06-27T21:10:25.404Z,21.33
2018-06-27T21:12:55.607Z,21.32
2018-06-27T21:15:29.331Z,21.26
2018-06-27T21:18:01.871Z,21.14
2018-06-27T21:20:34.769Z,21.23
2018-06-27T21:23:09.741Z,21.20
2018-06-27T21:25:44.401Z,21.21
2018-06-27T21:28:13.834Z,21.21
2018-06-27T21:30:45.468Z,21.03
2018-06-27T21:33:17.277Z,20.96
2018-06-27T21:35:50.158Z,21.07
2018-06-27T21:38:20.080Z,20.99
2018-06-27T21:40:51.509Z,21.05
2018-06-27T21:43:21.436Z,21.01
2018-06-27T21:45:54.372Z,20.94
2018-06-27T21:48:24.917Z,20.83
2018-06-27T21:50:56.448Z,20.90
2018-06-27T21:53:27.919Z,20.93
2018-06-27T21:56:00.877Z,20.83
2018-06-27T21:58:33.974Z,20.74
2018-06-27T22:01:05.306Z,20.79
2018-06-27T22:03:37.256Z,20.69
2018-06-27T22:06:09.322Z,20.59
2018-06-27T22:08:39.393Z,20.59
2018-06-27T22:11:11.036Z,20.58
2018-06-27T22:13:44.120Z,20.49
2018-06-27T22:16:14.177Z,20.41
2018-06-27T22:18:45.731Z,20.36
2018-06-27T22:21:19.285Z,20.38
2018-06-27T22:23:50.740Z,20.34
2018-06-27T22:26:23.955Z,20.33
2018-06-27T22:28:57.084Z,20.29
2018-06-27T22:31:27.252Z,20.24
2018-06-27T22:34:02.023Z,20.18
2018-06-27T22:36:33.477Z,20.11
2018-06-27T22:39:03.531Z,20.10
2018-06-27T22:41:36.357Z,20.08
2018-06-27T22:44:08.511Z,20.09
2018-06-27T22:46:41.750Z,20.06
2018-06-27T22:49:12.491Z,20.09
2018-06-27T22:51:45.380Z,19.95
2018-06-27T22:54:16.867Z,19.92
2018-06-27T22:56:49.830Z,19.86
2018-06-27T22:59:19.863Z,19.80
2018-06-27T23:01:51.308Z,19.80
2018-06-27T23:04:24.301Z,19.79
2018-06-27T23:06:59.018Z,19.78
2018-06-27T23:09:30.595Z,19.70
2018-06-27T23:12:02.183Z,19.63
2018-06-27T23:14:33.805Z,19.50
2018-06-27T23:17:05.336Z,19.51
2018-06-27T23:19:35.313Z,19.49
2018-06-27T23:22:07.064Z,19.40
2018-06-27T23:24:40.220Z,19.41
2018-06-27T23:27:14.819Z,19.40
2018-06-27T23:29:49.162Z,19.35
2018-06-27T23:32:22.291Z,19.25
2018-06-27T23:34:55.189Z,19.20
2018-06-27T23:37:28.292Z,19.08
2018-06-27T23:40:02.736Z,19.13
2018-06-27T23:42:34.674Z,19.13
2018-06-27T23:45:06.691Z,19.10
2018-06-27T23:47:40.262Z,19.09
2018-06-27T23:50:14.792Z,19.06
2018-06-27T23:52:45.220Z,19.00
2018-06-27T23:55:16.768Z,18.93
2018-06-27T23:57:51.209Z,18.85
